Time;durP1;ratioP1;P1;durP2;ratioP2;P2;SDS_P1;SDS_P2;PMS_P1;PMS_P2;Temp;Humidity;BMP_temperature;BMP_pressure;BME280_temperature;BME280_humidity;BME280_pressure;Samples;Min_cycle;Max_cycle;Signal;HPM_P1;HPM_P2
2022/11/08 00:04:43;;;;;;;2.40;0.77;;;13.70;71.40;;;;;;2297477;55;21444;-76
2022/11/08 00:15:25;;;;;;;3.75;1.30;;;13.60;71.70;;;;;;2258561;55;21483;-75
2022/11/08 00:17:51;;;;;;;3.10;1.40;;;13.60;71.70;;;;;;2266334;55;20957;-76
2022/11/08 00:20:27;;;;;;;4.30;1.55;;;13.50;71.60;;;;;;2251245;56;21001;-76
2022/11/08 00:22:53;;;;;;;4.40;1.65;;;13.50;71.20;;;;;;2478529;55;21005;-75
2022/11/08 00:25:20;;;;;;;5.43;1.60;;;13.50;71.60;;;;;;2250513;56;21226;-75
2022/11/08 00:27:46;;;;;;;3.90;1.87;;;13.40;71.40;;;;;;2296079;55;21021;-75
2022/11/08 00:30:13;;;;;;;5.03;1.67;;;13.40;71.40;;;;;;2291983;55;21505;-75
2022/11/08 00:32:39;;;;;;;3.50;1.52;;;13.40;71.40;;;;;;2297346;55;21056;-75
2022/11/08 00:35:07;;;;;;;5.75;1.50;;;13.30;71.30;;;;;;2266730;55;21496;-75
2022/11/08 00:37:33;;;;;;;3.67;1.25;;;13.30;71.40;;;;;;2309961;55;21565;-76
2022/11/08 00:40:00;;;;;;;4.55;2.10;;;13.30;71.50;;;;;;2250844;56;21005;-76
2022/11/08 00:42:27;;;;;;;3.22;1.40;;;13.20;71.40;;;;;;2250908;56;21855;-75
2022/11/08 00:44:53;;;;;;;2.65;1.25;;;13.20;71.40;;;;;;2250752;56;21056;-75
2022/11/08 00:47:20;;;;;;;3.03;1.33;;;13.20;71.40;;;;;;2478470;55;20981;-76
2022/11/08 00:49:46;;;;;;;4.78;1.62;;;13.20;71.40;;;;;;2359256;55;21719;-75
2022/11/08 00:52:13;;;;;;;2.80;1.20;;;13.10;71.30;;;;;;2371313;55;21548;-75
2022/11/08 00:54:39;;;;;;;4.32;1.23;;;13.10;71.30;;;;;;2250963;56;20945;-75
2022/11/08 00:57:06;;;;;;;3.47;1.60;;;13.10;71.20;;;;;;2353637;55;21479;-75
2022/11/08 00:59:33;;;;;;;2.70;1.37;;;13.10;71.10;;;;;;2251211;56;20945;-75
2022/11/08 01:02:00;;;;;;;3.28;1.23;;;13.00;71.00;;;;;;2455552;55;20960;-75
2022/11/08 01:04:26;;;;;;;4.82;1.80;;;13.00;70.80;;;;;;2250819;56;21683;-75
2022/11/08 01:06:53;;;;;;;4.43;1.75;;;12.90;70.70;;;;;;2324770;55;21886;-75
2022/11/08 01:09:25;;;;;;;3.65;2.00;;;12.90;70.70;;;;;;2359127;55;20985;-75
2022/11/08 01:11:51;;;;;;;3.33;1.30;;;12.90;70.60;;;;;;2291747;55;20984;-75
2022/11/08 01:14:18;;;;;;;2.45;1.27;;;12.80;70.80;;;;;;2250902;56;20985;-75
2022/11/08 01:16:45;;;;;;;3.45;1.73;;;12.80;70.70;;;;;;2250699;56;21348;-75
2022/11/08 01:19:11;;;;;;;3.90;1.55;;;12.80;70.70;;;;;;2292613;55;21853;-75
2022/11/08 01:21:37;;;;;;;3.30;1.60;;;12.70;70.60;;;;;;2269302;55;21005;-76
2022/11/08 01:24:05;;;;;;;2.67;1.45;;;12.70;70.50;;;;;;2250765;56;21761;-75
2022/11/08 01:26:32;;;;;;;3.12;1.42;;;12.60;70.50;;;;;;2460452;55;20972;-76
2022/11/08 01:28:58;;;;;;;3.20;1.75;;;12.60;70.40;;;;;;2251239;56;21340;-76
2022/11/08 01:31:26;;;;;;;3.60;1.37;;;12.60;70.40;;;;;;2321947;55;21388;-75
2022/11/08 01:33:53;;;;;;;5.18;1.60;;;12.50;70.30;;;;;;2250847;56;21555;-75
2022/11/08 01:36:26;;;;;;;3.60;1.60;;;12.50;70.40;;;;;;2377601;55;21028;-76
2022/11/08 01:38:56;;;;;;;3.15;1.35;;;12.40;70.10;;;;;;2250568;56;21987;-75
2022/11/08 01:41:23;;;;;;;2.90;1.12;;;12.40;70.30;;;;;;2248849;56;21493;-76
2022/11/08 01:43:51;;;;;;;5.35;1.50;;;12.40;70.40;;;;;;2283375;55;21001;-76
2022/11/08 01:46:39;;;;;;;2.80;1.20;;;12.40;70.40;;;;;;2281664;55;21585;-75
2022/11/08 01:49:29;;;;;;;3.60;1.20;;;12.30;70.00;;;;;;2263174;55;22203;-75
2022/11/08 01:52:12;;;;;;;2.75;1.27;;;12.20;69.80;;;;;;2250795;56;20984;-75
2022/11/08 01:54:48;;;;;;;2.03;1.00;;;12.20;69.90;;;;;;2251155;56;20960;-75
2022/11/08 01:57:18;;;;;;;4.18;1.00;;;12.10;70.00;;;;;;2291649;55;21483;-75
2022/11/08 01:59:45;;;;;;;2.60;1.00;;;12.10;70.30;;;;;;2251176;56;20941;-75
2022/11/08 02:02:11;;;;;;;4.82;1.95;;;12.10;70.40;;;;;;2344295;55;21116;-75
2022/11/08 02:04:38;;;;;;;5.35;2.78;;;12.00;70.30;;;;;;2251311;56;20945;-75
2022/11/08 02:07:05;;;;;;;4.07;1.80;;;12.00;70.20;;;;;;2251165;56;21099;-75
2022/11/08 02:09:31;;;;;;;4.20;1.75;;;12.00;70.30;;;;;;2251239;56;20960;-75
2022/11/08 02:11:57;;;;;;;5.18;2.47;;;11.90;70.20;;;;;;2251288;56;20960;-75
2022/11/08 02:14:24;;;;;;;5.62;2.22;;;11.90;70.10;;;;;;2466546;55;21896;-75
2022/11/08 02:16:50;;;;;;;4.07;2.10;;;11.80;70.00;;;;;;2263915;55;21352;-75
2022/11/08 02:19:22;;;;;;;3.90;1.98;;;11.80;70.10;;;;;;2251079;56;21573;-75
2022/11/08 02:21:52;;;;;;;5.05;2.28;;;11.80;70.10;;;;;;2479028;55;22046;-75
2022/11/08 02:24:18;;;;;;;4.68;2.50;;;11.70;70.00;;;;;;2478926;55;21452;-75
2022/11/08 02:26:45;;;;;;;5.22;2.50;;;11.70;70.10;;;;;;2306080;55;21900;-75
2022/11/08 02:29:31;;;;;;;6.50;2.75;;;11.60;70.00;;;;;;2251170;56;21393;-75
2022/11/08 02:32:01;;;;;;;5.32;2.20;;;11.60;69.50;;;;;;2279885;55;21287;-75
2022/11/08 02:34:42;;;;;;;4.35;1.95;;;11.50;70.40;;;;;;2251165;56;21640;-75
2022/11/08 02:37:09;;;;;;;4.45;1.55;;;11.50;69.80;;;;;;2349802;55;21512;-75
2022/11/08 02:39:35;;;;;;;4.07;1.80;;;11.50;70.10;;;;;;2251191;56;21021;-75
2022/11/08 02:42:02;;;;;;;4.57;1.62;;;11.40;70.10;;;;;;2256668;55;21854;-75
2022/11/08 02:44:28;;;;;;;3.37;1.62;;;11.40;70.20;;;;;;2251187;56;21051;-75
2022/11/08 02:46:55;;;;;;;3.72;1.70;;;11.40;70.20;;;;;;2256268;55;21412;-75
2022/11/08 02:49:22;;;;;;;3.17;1.33;;;11.30;70.10;;;;;;2358469;55;21368;-75
2022/11/08 02:51:51;;;;;;;3.47;1.50;;;11.30;70.00;;;;;;2298927;55;21038;-76
2022/11/08 02:54:17;;;;;;;3.45;1.40;;;11.30;70.00;;;;;;2251175;56;21269;-75
2022/11/08 02:56:43;;;;;;;4.35;1.58;;;11.30;70.00;;;;;;2397875;55;21065;-75
2022/11/08 02:59:10;;;;;;;4.87;1.40;;;11.20;70.00;;;;;;2262338;55;20929;-75
2022/11/08 03:01:37;;;;;;;3.30;1.40;;;11.20;70.10;;;;;;2263002;55;21095;-75
2022/11/08 03:04:03;;;;;;;3.75;1.40;;;11.20;70.20;;;;;;2250907;56;20957;-76
2022/11/08 03:06:30;;;;;;;3.30;1.27;;;11.10;70.20;;;;;;2316999;55;21432;-76
2022/11/08 03:08:56;;;;;;;2.83;0.90;;;11.10;70.20;;;;;;2251109;56;21798;-75
2022/11/08 03:11:23;;;;;;;3.22;1.10;;;11.00;70.00;;;;;;2386314;55;21559;-75
2022/11/08 03:13:49;;;;;;;2.42;0.90;;;11.00;70.00;;;;;;2251181;56;21036;-75
2022/11/08 03:16:16;;;;;;;2.70;0.88;;;11.00;70.10;;;;;;2251374;56;20925;-75
2022/11/08 03:18:42;;;;;;;2.78;0.90;;;11.00;70.20;;;;;;2251006;56;21601;-75
2022/11/08 03:21:09;;;;;;;1.80;0.80;;;11.00;70.10;;;;;;2256829;55;21613;-75
2022/11/08 03:23:36;;;;;;;1.25;0.50;;;10.90;70.00;;;;;;2251683;56;20972;-75
2022/11/08 03:26:03;;;;;;;1.45;0.50;;;10.90;70.10;;;;;;2286792;55;21514;-75
2022/11/08 03:28:29;;;;;;;1.00;0.40;;;10.90;70.10;;;;;;2250898;56;22026;-75
2022/11/08 03:30:56;;;;;;;0.95;0.50;;;10.80;70.00;;;;;;2316322;55;21565;-75
2022/11/08 03:33:23;;;;;;;0.98;0.43;;;10.80;70.00;;;;;;2363856;55;21005;-75
2022/11/08 03:35:50;;;;;;;1.98;0.60;;;10.80;70.00;;;;;;2296212;55;21440;-75
2022/11/08 03:38:16;;;;;;;2.35;0.80;;;10.70;70.10;;;;;;2341008;55;21625;-75
2022/11/08 03:40:44;;;;;;;2.55;0.80;;;10.70;70.20;;;;;;2405171;55;21564;-75
2022/11/08 03:43:10;;;;;;;1.48;0.70;;;10.70;70.40;;;;;;2251059;56;21234;-75
2022/11/08 03:45:37;;;;;;;2.53;0.77;;;10.70;70.60;;;;;;2308627;55;20984;-76
2022/11/08 03:48:03;;;;;;;1.35;0.50;;;10.70;70.60;;;;;;2250935;56;20956;-75
2022/11/08 03:50:30;;;;;;;2.50;0.73;;;10.70;70.70;;;;;;2281064;55;21546;-75
2022/11/08 03:52:57;;;;;;;1.10;0.55;;;10.70;70.60;;;;;;2262441;55;21560;-76
2022/11/08 03:55:24;;;;;;;1.75;0.50;;;10.70;70.50;;;;;;2255782;55;21086;-75
2022/11/08 03:57:50;;;;;;;1.37;0.52;;;10.60;70.40;;;;;;2251060;56;21930;-75
2022/11/08 04:00:19;;;;;;;1.80;0.65;;;10.60;70.30;;;;;;2298625;55;21495;-75
2022/11/08 04:02:46;;;;;;;2.40;0.70;;;10.60;70.30;;;;;;2250860;56;21444;-77
2022/11/08 04:05:13;;;;;;;1.45;0.60;;;10.60;70.50;;;;;;2265498;55;20944;-75
2022/11/08 04:07:39;;;;;;;1.87;0.70;;;10.60;70.60;;;;;;2358012;55;22054;-75
2022/11/08 04:10:07;;;;;;;1.50;0.60;;;10.60;70.70;;;;;;2310145;55;21344;-76
2022/11/08 04:15:21;;;;;;;1.05;0.50;;;10.50;70.70;;;;;;2280096;55;21581;-75
2022/11/08 04:23:21;;;;;;;1.33;0.50;;;10.50;70.60;;;;;;2382020;55;21076;-75
2022/11/08 04:25:55;;;;;;;2.25;0.70;;;10.50;70.50;;;;;;2311128;55;21501;-75
2022/11/08 04:28:27;;;;;;;1.77;0.70;;;10.50;70.50;;;;;;2270703;55;21092;-76
2022/11/08 04:30:58;;;;;;;1.92;0.80;;;10.50;70.70;;;;;;2251117;56;21120;-75
2022/11/08 04:33:24;;;;;;;0.75;0.47;;;10.50;70.70;;;;;;2250796;56;21437;-76
2022/11/08 04:35:51;;;;;;;4.15;0.65;;;10.50;70.80;;;;;;2256456;55;21509;-75
2022/11/08 04:38:17;;;;;;;1.87;0.73;;;10.50;70.80;;;;;;2293590;55;21012;-76
2022/11/08 04:40:44;;;;;;;1.00;0.50;;;10.40;70.70;;;;;;2253419;55;21055;-75
2022/11/08 04:43:10;;;;;;;3.37;1.58;;;10.40;70.70;;;;;;2252096;56;21483;-75
2022/11/08 04:45:36;;;;;;;3.90;1.10;;;10.40;70.60;;;;;;2372288;55;21096;-75
2022/11/08 04:48:03;;;;;;;3.20;1.20;;;10.40;70.70;;;;;;2255739;55;21009;-75
2022/11/08 04:50:29;;;;;;;3.65;1.37;;;10.40;70.50;;;;;;2257637;55;21615;-76
2022/11/08 04:52:59;;;;;;;3.60;1.20;;;10.40;70.40;;;;;;2252303;56;20989;-75
2022/11/08 04:55:25;;;;;;;3.40;1.20;;;10.40;70.40;;;;;;2389549;55;21052;-75
2022/11/08 04:57:56;;;;;;;3.87;1.10;;;10.40;70.60;;;;;;2251636;56;21422;-75
2022/11/08 05:00:23;;;;;;;2.78;1.08;;;10.40;70.50;;;;;;2252059;56;20984;-75
2022/11/08 05:02:49;;;;;;;2.65;1.00;;;10.30;70.50;;;;;;2251662;56;21372;-75
2022/11/08 05:05:15;;;;;;;2.33;0.93;;;10.30;70.50;;;;;;2278957;55;21443;-75
2022/11/08 05:07:42;;;;;;;3.92;1.20;;;10.30;70.50;;;;;;2360931;55;20992;-75
2022/11/08 05:10:08;;;;;;;5.50;1.30;;;10.30;70.50;;;;;;2453126;55;20992;-75
2022/11/08 05:12:35;;;;;;;3.10;1.08;;;10.30;70.70;;;;;;2251361;56;21626;-75
2022/11/08 05:15:01;;;;;;;2.67;1.30;;;10.30;70.70;;;;;;2251198;56;20977;-75
2022/11/08 05:17:28;;;;;;;2.47;1.02;;;10.30;70.70;;;;;;2257520;55;21360;-75
2022/11/08 05:25:24;;;;;;;1.92;0.82;;;10.20;70.40;;;;;;2293400;55;20964;-75
2022/11/08 05:27:51;;;;;;;1.80;0.70;;;10.20;70.20;;;;;;2251601;56;20988;-76
2022/11/08 05:30:17;;;;;;;1.65;0.80;;;10.10;70.10;;;;;;2296157;55;21005;-75
2022/11/08 05:32:44;;;;;;;2.20;0.85;;;10.10;70.30;;;;;;2310550;55;21377;-75
2022/11/08 05:35:10;;;;;;;1.90;0.80;;;10.10;70.30;;;;;;2285850;55;21468;-75
2022/11/08 05:37:40;;;;;;;1.92;0.90;;;10.10;70.20;;;;;;2322345;55;21494;-76
2022/11/08 05:40:08;;;;;;;2.33;0.80;;;10.10;70.40;;;;;;2252115;56;21419;-76
2022/11/08 05:42:34;;;;;;;1.90;0.90;;;10.00;70.00;;;;;;2252224;56;21404;-76
2022/11/08 05:45:01;;;;;;;2.50;0.90;;;10.00;70.10;;;;;;2258564;55;21918;-76
2022/11/08 05:47:29;;;;;;;2.35;1.10;;;10.00;70.20;;;;;;2252393;56;21041;-75
2022/11/08 05:49:56;;;;;;;6.30;2.10;;;10.00;70.10;;;;;;2318459;55;21303;-76
2022/11/08 05:52:22;;;;;;;5.00;2.70;;;9.90;71.30;;;;;;2377437;55;20945;-76
2022/11/08 05:54:49;;;;;;;3.80;2.20;;;9.90;71.50;;;;;;2252252;56;21050;-75
2022/11/08 05:57:15;;;;;;;3.70;1.80;;;9.90;71.70;;;;;;2252297;56;21009;-75
2022/11/08 05:59:43;;;;;;;2.97;1.35;;;9.90;71.90;;;;;;2351867;55;21507;-75
2022/11/08 06:02:09;;;;;;;2.80;1.27;;;9.90;71.90;;;;;;2296825;55;20960;-75
2022/11/08 06:04:36;;;;;;;4.03;1.15;;;9.90;72.00;;;;;;2284159;55;21360;-75
2022/11/08 06:07:03;;;;;;;2.35;1.00;;;9.90;72.00;;;;;;2252133;56;20941;-76
2022/11/08 06:09:29;;;;;;;2.33;0.90;;;9.90;72.10;;;;;;2252009;56;21356;-75
2022/11/08 06:11:56;;;;;;;2.17;0.82;;;9.90;72.20;;;;;;2252516;56;20964;-75
2022/11/08 06:14:23;;;;;;;2.17;0.80;;;10.00;71.20;;;;;;2337437;55;20941;-75
2022/11/08 06:16:49;;;;;;;2.50;0.77;;;9.90;72.20;;;;;;2252251;56;20937;-75
2022/11/08 06:19:15;;;;;;;1.30;0.60;;;9.90;72.30;;;;;;2395997;55;21013;-75
2022/11/08 06:21:42;;;;;;;1.35;0.60;;;9.90;72.40;;;;;;2252200;56;21000;-75
2022/11/08 06:24:09;;;;;;;1.62;0.70;;;9.90;72.40;;;;;;2254705;55;21552;-75
2022/11/08 06:26:35;;;;;;;2.37;0.98;;;10.00;71.30;;;;;;2258436;55;21428;-75
2022/11/08 06:29:01;;;;;;;1.95;0.80;;;10.00;71.30;;;;;;2252185;56;21459;-75
2022/11/08 06:31:28;;;;;;;1.65;0.75;;;10.00;71.40;;;;;;2282372;55;21293;-75
2022/11/08 06:33:54;;;;;;;2.50;0.98;;;10.00;71.50;;;;;;2251987;56;21060;-75
2022/11/08 06:36:21;;;;;;;5.32;1.67;;;10.00;71.60;;;;;;2273192;55;20969;-75
2022/11/08 06:38:47;;;;;;;5.78;2.50;;;10.10;71.80;;;;;;2252154;56;20957;-76
2022/11/08 06:41:17;;;;;;;5.05;2.35;;;10.10;71.80;;;;;;2251831;56;21757;-75
2022/11/08 06:43:44;;;;;;;10.13;4.50;;;10.10;71.90;;;;;;2251927;56;20944;-75
2022/11/08 06:46:10;;;;;;;8.43;3.20;;;10.10;71.90;;;;;;2251949;56;21008;-76
2022/11/08 06:48:36;;;;;;;9.50;4.78;;;10.10;71.90;;;;;;2252244;56;21493;-75
2022/11/08 06:51:03;;;;;;;14.10;6.45;;;10.20;72.10;;;;;;2375971;55;21379;-75
2022/11/08 06:53:29;;;;;;;9.45;5.03;;;10.20;72.10;;;;;;2332085;55;20966;-75
2022/11/08 06:55:57;;;;;;;8.48;4.37;;;10.20;72.30;;;;;;2246576;56;21446;-75
2022/11/08 06:58:23;;;;;;;7.10;3.40;;;10.20;72.30;;;;;;2372725;55;21552;-75
2022/11/08 07:00:49;;;;;;;5.55;2.85;;;10.30;72.50;;;;;;2252144;56;21028;-74
2022/11/08 07:03:16;;;;;;;6.57;3.00;;;10.30;72.60;;;;;;2258481;55;21579;-77
2022/11/08 07:05:42;;;;;;;4.78;2.25;;;10.30;72.70;;;;;;2307343;55;21051;-77
2022/11/08 07:08:12;;;;;;;4.32;1.90;;;10.40;72.90;;;;;;2252400;56;20972;-77
2022/11/08 07:10:39;;;;;;;3.95;2.03;;;10.40;72.80;;;;;;2353126;55;21008;-77
2022/11/08 07:13:08;;;;;;;3.58;1.60;;;10.50;73.00;;;;;;2310386;55;21508;-77
2022/11/08 07:15:34;;;;;;;3.60;1.58;;;10.50;73.00;;;;;;2258309;55;21362;-77
2022/11/08 07:18:02;;;;;;;3.62;1.40;;;10.60;73.20;;;;;;2252652;56;21485;-77
2022/11/08 07:20:28;;;;;;;2.97;1.50;;;10.60;73.10;;;;;;2252609;56;21480;-77
2022/11/08 07:22:55;;;;;;;3.58;1.55;;;10.60;73.20;;;;;;2258379;55;21025;-77
2022/11/08 07:25:22;;;;;;;2.72;1.23;;;10.70;74.10;;;;;;2465563;55;21065;-77
2022/11/08 07:27:48;;;;;;;2.85;1.33;;;10.70;73.50;;;;;;2254448;55;20972;-77
2022/11/08 07:30:14;;;;;;;2.40;1.17;;;10.80;73.60;;;;;;2273624;55;20981;-77
2022/11/08 07:32:41;;;;;;;2.80;1.10;;;10.80;73.60;;;;;;2253457;56;20948;-77
2022/11/08 07:35:07;;;;;;;2.87;1.12;;;10.90;73.70;;;;;;2443659;55;20961;-77
2022/11/08 07:37:34;;;;;;;2.42;1.12;;;11.00;73.80;;;;;;2354058;55;22525;-77
2022/11/08 07:40:00;;;;;;;2.70;1.30;;;11.00;73.90;;;;;;2252221;56;20980;-77
2022/11/08 07:42:26;;;;;;;2.67;1.30;;;11.00;73.90;;;;;;2299839;54;20964;-77
2022/11/08 07:44:56;;;;;;;4.62;1.48;;;11.10;74.00;;;;;;2252649;56;21064;-77
2022/11/08 07:47:22;;;;;;;3.42;1.55;;;11.20;74.10;;;;;;2290710;55;21527;-77
2022/11/08 07:49:49;;;;;;;2.83;1.30;;;11.20;74.20;;;;;;2336089;55;20983;-78
2022/11/08 07:52:15;;;;;;;3.22;1.12;;;11.30;74.30;;;;;;2252604;56;21420;-77
2022/11/08 07:54:42;;;;;;;2.30;1.10;;;11.30;74.40;;;;;;2292300;55;21975;-78
2022/11/08 07:57:08;;;;;;;3.80;1.10;;;11.40;74.50;;;;;;2252631;56;20953;-77
2022/11/08 07:59:35;;;;;;;2.97;1.10;;;11.50;74.60;;;;;;2389058;55;21012;-77
2022/11/08 08:02:01;;;;;;;2.95;1.10;;;11.50;74.60;;;;;;2258107;55;21428;-77
2022/11/08 08:04:28;;;;;;;2.60;1.10;;;11.60;74.70;;;;;;2286209;55;20977;-77
2022/11/08 08:06:54;;;;;;;2.35;1.00;;;11.70;74.70;;;;;;2260806;56;20932;-78
2022/11/08 08:09:21;;;;;;;2.95;1.20;;;11.70;74.70;;;;;;2267354;55;21359;-78
2022/11/08 08:11:47;;;;;;;3.30;1.08;;;11.80;74.80;;;;;;2262125;56;21048;-78
2022/11/08 08:14:14;;;;;;;3.95;1.23;;;11.90;74.80;;;;;;2282593;55;20989;-78
2022/11/08 08:16:40;;;;;;;3.50;1.40;;;11.90;74.60;;;;;;2261668;56;21244;-78
2022/11/08 08:19:07;;;;;;;3.30;1.40;;;12.00;74.70;;;;;;2308692;55;21002;-77
2022/11/08 08:21:33;;;;;;;3.62;1.25;;;12.00;74.70;;;;;;2261516;56;20933;-78
2022/11/08 08:23:59;;;;;;;3.53;1.45;;;12.10;74.90;;;;;;2266913;55;20976;-77
2022/11/08 08:26:26;;;;;;;2.80;1.00;;;12.20;75.00;;;;;;2297350;55;21076;-77
2022/11/08 08:28:52;;;;;;;2.15;0.93;;;12.20;75.00;;;;;;2350985;55;20997;-79
2022/11/08 08:31:18;;;;;;;3.83;1.62;;;12.30;75.10;;;;;;2262179;56;20949;-76
2022/11/08 08:33:45;;;;;;;4.20;1.62;;;12.30;75.10;;;;;;2267783;55;21041;-80
2022/11/08 08:36:11;;;;;;;3.67;1.30;;;12.40;75.20;;;;;;2261918;56;20972;-78
2022/11/08 08:38:37;;;;;;;3.62;1.70;;;12.50;75.20;;;;;;2261736;56;21773;-78
2022/11/08 08:41:07;;;;;;;6.10;1.42;;;12.50;75.20;;;;;;2258666;56;20960;-77
2022/11/08 08:43:34;;;;;;;3.35;1.58;;;12.60;75.30;;;;;;2278141;55;20929;-78
2022/11/08 08:46:01;;;;;;;4.65;1.40;;;12.70;75.40;;;;;;2262106;56;20968;-78
2022/11/08 08:48:27;;;;;;;2.80;1.00;;;12.70;75.40;;;;;;2262004;56;20917;-78
2022/11/08 08:50:53;;;;;;;2.67;1.20;;;12.80;75.40;;;;;;2264360;55;21029;-77
2022/11/08 08:53:20;;;;;;;2.95;1.40;;;12.90;75.50;;;;;;2327397;55;20933;-78
2022/11/08 08:55:52;;;;;;;3.35;1.27;;;12.90;75.40;;;;;;2261772;56;20990;-79
2022/11/08 08:58:19;;;;;;;2.90;1.30;;;13.00;75.40;;;;;;2376657;55;20957;-78
2022/11/08 09:00:46;;;;;;;3.00;1.20;;;13.10;75.40;;;;;;2261668;56;21573;-77
2022/11/08 09:03:42;;;;;;;2.58;1.08;;;13.10;75.30;;;;;;2266398;55;20955;-78
2022/11/08 09:06:09;;;;;;;3.53;1.60;;;13.20;75.20;;;;;;2262175;56;20952;-78
2022/11/08 09:08:35;;;;;;;4.35;1.95;;;13.20;75.00;;;;;;2303146;55;21685;-78
2022/11/08 09:11:02;;;;;;;3.47;1.83;;;13.30;75.00;;;;;;2308667;55;20948;-78
2022/11/08 09:13:29;;;;;;;3.80;1.70;;;13.30;75.00;;;;;;2255831;55;21016;-78
2022/11/08 09:15:56;;;;;;;3.15;1.58;;;13.40;75.10;;;;;;2326507;55;20981;-78
2022/11/08 09:18:23;;;;;;;4.12;2.00;;;13.40;75.10;;;;;;2256496;55;20992;-78
2022/11/08 09:20:55;;;;;;;4.40;2.00;;;13.50;75.40;;;;;;2261859;56;21021;-77
2022/11/08 09:23:21;;;;;;;3.00;1.62;;;13.50;75.30;;;;;;2261578;56;21039;-78
2022/11/08 09:25:48;;;;;;;4.75;1.73;;;13.60;75.60;;;;;;2262157;56;20968;-78
2022/11/08 09:28:14;;;;;;;4.78;1.92;;;13.60;75.70;;;;;;2337822;55;21353;-78
2022/11/08 09:30:41;;;;;;;4.70;1.80;;;13.70;75.80;;;;;;2344400;55;20940;-78
2022/11/08 09:33:07;;;;;;;3.45;1.70;;;13.80;75.90;;;;;;2262251;56;21814;-78
2022/11/08 09:35:34;;;;;;;3.35;1.95;;;13.90;76.10;;;;;;2281038;55;21049;-77
2022/11/08 09:38:00;;;;;;;3.78;2.08;;;13.90;76.10;;;;;;2261841;56;21025;-78
2022/11/08 09:40:30;;;;;;;4.87;1.98;;;14.00;76.20;;;;;;2261298;56;21021;-77
2022/11/08 09:44:45;;;;;;;3.85;1.90;;;14.10;76.10;;;;;;2255340;56;20984;-78
2022/11/08 09:47:22;;;;;;;3.97;1.80;;;14.20;75.00;;;;;;2266049;56;21043;-78
2022/11/08 09:51:11;;;;;;;3.53;1.52;;;14.30;76.00;;;;;;2261614;56;21061;-79
2022/11/08 09:53:59;;;;;;;5.07;1.95;;;14.40;76.40;;;;;;2262169;56;21048;-79
2022/11/08 09:56:30;;;;;;;5.82;2.83;;;14.50;76.10;;;;;;2295055;55;21013;-79
2022/11/08 09:59:33;;;;;;;3.97;2.12;;;14.50;76.80;;;;;;2261247;56;20965;-78
2022/11/08 10:01:59;;;;;;;4.05;2.30;;;14.70;76.50;;;;;;2262180;56;20972;-79
2022/11/08 10:04:30;;;;;;;3.85;2.05;;;14.70;77.50;;;;;;2306377;55;21013;-78
2022/11/08 10:09:51;;;;;;;4.97;2.58;;;14.80;77.30;;;;;;2261642;56;21535;-79
2022/11/08 10:12:46;;;;;;;4.03;2.03;;;14.90;76.80;;;;;;2261931;56;20933;-79
2022/11/08 10:15:50;;;;;;;4.20;1.98;;;15.20;77.00;;;;;;2261853;56;21536;-79
2022/11/08 10:18:56;;;;;;;3.65;1.83;;;15.20;77.00;;;;;;2319666;55;20993;-79
2022/11/08 10:21:56;;;;;;;4.65;2.17;;;15.40;77.00;;;;;;2262035;56;21461;-77
2022/11/08 10:24:34;;;;;;;3.50;1.70;;;15.50;77.20;;;;;;2262351;56;20937;-76
2022/11/08 10:27:00;;;;;;;5.65;2.00;;;15.60;77.90;;;;;;2429698;55;21562;-78
2022/11/08 10:29:33;;;;;;;5.22;2.10;;;15.70;78.50;;;;;;2256044;56;20996;-76
2022/11/08 10:32:20;;;;;;;3.72;2.00;;;15.80;78.50;;;;;;2257306;56;21021;-78
2022/11/08 10:35:03;;;;;;;2.90;1.65;;;15.90;77.90;;;;;;2457444;55;20945;-78
2022/11/08 10:37:30;;;;;;;3.22;1.52;;;16.00;78.50;;;;;;2291811;55;21001;-78
2022/11/08 10:40:15;;;;;;;4.15;2.10;;;16.10;78.70;;;;;;2290608;55;21293;-76
2022/11/08 10:42:54;;;;;;;4.65;2.22;;;16.20;78.50;;;;;;2256434;55;20948;-75
2022/11/08 10:45:21;;;;;;;3.50;2.03;;;16.40;78.50;;;;;;2241586;56;21035;-79
2022/11/08 10:47:47;;;;;;;4.32;2.08;;;16.50;78.60;;;;;;2290020;54;21017;-75
2022/11/08 10:50:14;;;;;;;4.55;2.42;;;16.60;78.50;;;;;;2261952;56;20968;-72
2022/11/08 10:53:00;;;;;;;4.37;2.25;;;16.70;78.50;;;;;;2265726;55;20955;-75
2022/11/08 10:55:40;;;;;;;4.18;1.85;;;16.80;77.40;;;;;;2261772;56;21721;-74
2022/11/08 10:58:37;;;;;;;5.30;2.05;;;16.90;78.00;;;;;;2289922;55;21298;-75
2022/11/08 11:01:20;;;;;;;4.78;2.20;;;17.00;77.90;;;;;;2262404;56;20916;-75
2022/11/08 11:03:48;;;;;;;3.97;2.03;;;17.10;77.70;;;;;;2276647;55;21513;-74
2022/11/08 11:06:23;;;;;;;3.35;1.60;;;17.20;78.20;;;;;;2272004;55;20957;-76
2022/11/08 11:08:53;;;;;;;4.97;1.65;;;17.20;77.50;;;;;;2264751;55;20969;-75
2022/11/08 11:11:36;;;;;;;3.62;1.70;;;17.30;77.90;;;;;;2357528;55;20965;-75
2022/11/08 11:14:22;;;;;;;3.33;1.75;;;17.40;76.80;;;;;;2441132;55;20996;-75
2022/11/08 11:17:01;;;;;;;3.78;1.35;;;17.50;77.20;;;;;;2345687;55;20968;-74
2022/11/08 11:19:28;;;;;;;2.53;0.98;;;17.50;76.00;;;;;;2295115;55;21032;-74
2022/11/08 11:22:05;;;;;;;2.33;0.80;;;17.60;76.90;;;;;;2428246;55;21107;-73
2022/11/08 11:24:34;;;;;;;6.50;1.10;;;17.70;75.60;;;;;;2384933;55;20988;-75
2022/11/08 11:27:02;;;;;;;2.47;0.90;;;17.70;75.80;;;;;;2255838;55;21043;-74
2022/11/08 11:29:41;;;;;;;2.10;0.82;;;17.70;75.50;;;;;;2288489;55;21025;-75
2022/11/08 11:32:35;;;;;;;1.87;0.60;;;17.80;75.40;;;;;;2287083;55;21477;-75
2022/11/08 11:35:02;;;;;;;1.58;0.68;;;17.80;73.40;;;;;;2482439;55;21479;-72
2022/11/08 11:37:47;;;;;;;1.52;0.52;;;17.90;75.10;;;;;;2262127;56;20984;-71
2022/11/08 11:41:17;;;;;;;2.42;0.60;;;17.90;73.30;;;;;;2323979;55;21421;-68
2022/11/08 11:44:20;;;;;;;2.37;0.80;;;18.00;72.30;;;;;;2324811;55;21465;-76
2022/11/08 11:46:57;;;;;;;1.95;0.70;;;18.00;73.00;;;;;;2318599;55;20940;-72
2022/11/08 11:49:23;;;;;;;1.85;0.77;;;18.10;74.40;;;;;;2490565;55;20969;-72
2022/11/08 11:51:53;;;;;;;1.80;0.80;;;18.10;74.90;;;;;;2261876;56;20992;-73
2022/11/08 11:54:20;;;;;;;2.08;0.80;;;18.10;74.40;;;;;;2261771;56;21420;-74
2022/11/08 11:57:03;;;;;;;1.95;0.80;;;18.20;74.90;;;;;;2304741;54;22122;-73
2022/11/08 11:59:45;;;;;;;1.75;0.65;;;18.30;73.60;;;;;;2265818;56;20984;-73
2022/11/08 12:05:19;;;;;;;;;;;18.30;73.50;;;;;;2431162;55;21013;-73
2022/11/08 12:12:48;;;;;;;1.55;0.68;;;18.40;73.00;;;;;;2261719;56;20290;-74
2022/11/08 12:16:17;;;;;;;5.05;0.50;;;18.60;72.70;;;;;;2261691;56;21556;-71
2022/11/08 12:19:20;;;;;;;1.30;0.60;;;18.80;73.30;;;;;;2412317;55;20959;-74
2022/11/08 12:22:12;;;;;;;2.42;0.77;;;18.90;73.50;;;;;;2261869;56;21516;-73
2022/11/08 12:24:54;;;;;;;1.30;0.60;;;18.90;72.90;;;;;;2261596;56;21032;-73
2022/11/08 12:29:08;;;;;;;1.70;0.70;;;19.00;73.50;;;;;;2261287;56;20961;-76
2022/11/08 12:36:36;;;;;;;1.20;0.50;;;19.10;73.20;;;;;;2261374;56;20968;-74
2022/11/08 12:42:10;;;;;;;2.60;0.50;;;19.30;72.60;;;;;;2261734;56;21066;-74
2022/11/08 12:47:54;;;;;;;1.00;0.43;;;19.40;72.40;;;;;;2287556;55;21025;-74
2022/11/08 12:50:30;;;;;;;;;;;19.50;72.40;;;;;;2264987;56;20964;-76
2022/11/08 12:53:47;;;;;;;1.20;0.40;;;19.50;72.50;;;;;;2261689;56;20062;-73
2022/11/08 12:56:18;;;;;;;1.45;0.50;;;19.50;72.00;;;;;;2265324;56;21473;-74
2022/11/08 12:58:45;;;;;;;1.35;0.65;;;19.50;74.00;;;;;;2261395;56;21116;-75
2022/11/08 13:01:14;;;;;;;8.18;0.80;;;19.50;73.80;;;;;;2262683;56;21053;-73
2022/11/08 13:05:18;;;;;;;2.00;0.80;;;19.60;73.30;;;;;;2385366;55;20949;-75
2022/11/08 13:14:32;;;;;;;1.48;0.70;;;19.60;70.70;;;;;;2293640;55;21100;-73
2022/11/08 13:17:17;;;;;;;1.33;0.50;;;19.70;71.70;;;;;;2261486;56;20977;-75
2022/11/08 13:20:03;;;;;;;1.27;0.47;;;19.70;71.90;;;;;;2261975;56;21464;-74
2022/11/08 13:22:42;;;;;;;1.50;0.50;;;19.70;71.40;;;;;;2262628;56;20964;-76
2022/11/08 13:25:32;;;;;;;2.35;0.60;;;19.70;72.10;;;;;;2261960;56;21035;-74
2022/11/08 13:28:01;;;;;;;1.70;0.80;;;19.70;71.60;;;;;;2269071;57;21833;-73
2022/11/08 13:30:30;;;;;;;1.45;0.60;;;19.70;73.50;;;;;;2251125;56;21080;-74
2022/11/08 13:33:14;;;;;;;1.75;0.70;;;19.70;73.30;;;;;;2264974;56;20949;-73
2022/11/08 13:38:56;;;;;;;2.35;0.60;;;19.80;72.90;;;;;;2262673;55;21409;-74
2022/11/08 13:41:23;;;;;;;1.67;0.50;;;19.80;73.00;;;;;;2315831;55;21004;-74
2022/11/08 13:43:51;;;;;;;1.05;0.45;;;20.00;74.50;;;;;;2261929;56;20929;-73
2022/11/08 13:47:00;;;;;;;2.45;0.60;;;20.00;74.50;;;;;;2262101;56;21008;-74
2022/11/08 13:49:29;;;;;;;2.30;0.70;;;20.10;72.30;;;;;;2261901;56;20965;-75
2022/11/08 13:54:51;;;;;;;1.30;0.55;;;20.10;74.70;;;;;;2365070;55;20933;-73
2022/11/08 13:57:18;;;;;;;1.67;0.50;;;20.20;73.10;;;;;;2261603;56;21445;-73
2022/11/08 13:59:55;;;;;;;2.00;0.70;;;20.30;75.00;;;;;;2261908;56;21135;-73
2022/11/08 14:02:31;;;;;;;1.83;0.70;;;20.40;73.70;;;;;;2261595;56;21016;-74
2022/11/08 14:05:31;;;;;;;2.20;0.80;;;20.40;73.50;;;;;;2277343;55;20933;-72
2022/11/08 14:08:11;;;;;;;1.70;0.50;;;20.50;72.20;;;;;;2260856;56;21029;-74
2022/11/08 14:10:39;;;;;;;2.20;0.73;;;20.50;73.80;;;;;;2261399;56;20944;-71
2022/11/08 14:13:26;;;;;;;2.03;0.80;;;20.50;74.00;;;;;;2381757;55;21420;-72